sensor_id;sensor_type;location;lat;lon;timestamp;P1;durP1;ratioP1;P2;durP2;ratioP2
4174;SDS011;2101;48.290;14.382;2023-05-07T00:01:14;15.67;;;1.60;;
4174;SDS011;2101;48.290;14.382;2023-05-07T00:03:41;13.50;;;1.70;;
4174;SDS011;2101;48.290;14.382;2023-05-07T00:06:07;13.80;;;1.60;;
4174;SDS011;2101;48.290;14.382;2023-05-07T00:08:35;14.53;;;1.70;;
4174;SDS011;2101;48.290;14.382;2023-05-07T00:11:01;14.10;;;1.90;;
4174;SDS011;2101;48.290;14.382;2023-05-07T00:13:27;14.13;;;1.93;;
4174;SDS011;2101;48.290;14.382;2023-05-07T00:15:55;13.90;;;1.80;;
4174;SDS011;2101;48.290;14.382;2023-05-07T00:18:21;14.20;;;1.90;;
4174;SDS011;2101;48.290;14.382;2023-05-07T00:20:47;15.23;;;1.57;;
4174;SDS011;2101;48.290;14.382;2023-05-07T00:23:13;14.77;;;1.63;;
4174;SDS011;2101;48.290;14.382;2023-05-07T00:25:41;12.90;;;1.37;;
4174;SDS011;2101;48.290;14.382;2023-05-07T00:28:07;13.10;;;1.60;;
4174;SDS011;2101;48.290;14.382;2023-05-07T00:30:33;12.77;;;1.20;;
4174;SDS011;2101;48.290;14.382;2023-05-07T00:32:59;12.60;;;1.37;;
4174;SDS011;2101;48.290;14.382;2023-05-07T00:35:25;13.40;;;1.73;;
4174;SDS011;2101;48.290;14.382;2023-05-07T00:37:52;12.70;;;1.30;;
4174;SDS011;2101;48.290;14.382;2023-05-07T00:40:18;13.17;;;1.40;;
4174;SDS011;2101;48.290;14.382;2023-05-07T00:42:44;13.23;;;1.60;;
4174;SDS011;2101;48.290;14.382;2023-05-07T00:45:13;12.67;;;1.23;;
4174;SDS011;2101;48.290;14.382;2023-05-07T00:47:39;14.93;;;1.60;;
4174;SDS011;2101;48.290;14.382;2023-05-07T00:50:06;13.13;;;1.60;;
4174;SDS011;2101;48.290;14.382;2023-05-07T00:52:32;12.53;;;1.30;;
4174;SDS011;2101;48.290;14.382;2023-05-07T00:55:01;13.50;;;1.50;;
4174;SDS011;2101;48.290;14.382;2023-05-07T00:57:32;13.67;;;1.47;;
4174;SDS011;2101;48.290;14.382;2023-05-07T00:59:58;13.80;;;1.77;;
4174;SDS011;2101;48.290;14.382;2023-05-07T01:02:27;13.10;;;1.50;;
4174;SDS011;2101;48.290;14.382;2023-05-07T01:04:53;13.60;;;1.60;;
4174;SDS011;2101;48.290;14.382;2023-05-07T01:07:20;13.17;;;1.33;;
4174;SDS011;2101;48.290;14.382;2023-05-07T01:09:47;13.20;;;1.13;;
4174;SDS011;2101;48.290;14.382;2023-05-07T01:12:13;15.90;;;1.87;;
4174;SDS011;2101;48.290;14.382;2023-05-07T01:14:39;13.77;;;1.50;;
4174;SDS011;2101;48.290;14.382;2023-05-07T01:17:06;12.77;;;1.27;;
4174;SDS011;2101;48.290;14.382;2023-05-07T01:19:35;14.67;;;1.47;;
4174;SDS011;2101;48.290;14.382;2023-05-07T01:22:02;15.80;;;1.50;;
4174;SDS011;2101;48.290;14.382;2023-05-07T01:24:29;14.77;;;1.57;;
4174;SDS011;2101;48.290;14.382;2023-05-07T01:26:56;13.43;;;1.40;;
4174;SDS011;2101;48.290;14.382;2023-05-07T01:29:22;13.50;;;1.30;;
4174;SDS011;2101;48.290;14.382;2023-05-07T01:31:48;14.83;;;1.70;;
4174;SDS011;2101;48.290;14.382;2023-05-07T01:34:16;14.73;;;1.47;;
4174;SDS011;2101;48.290;14.382;2023-05-07T01:36:43;12.33;;;1.03;;
4174;SDS011;2101;48.290;14.382;2023-05-07T01:39:10;12.70;;;1.30;;
4174;SDS011;2101;48.290;14.382;2023-05-07T01:41:36;12.77;;;1.20;;
4174;SDS011;2101;48.290;14.382;2023-05-07T01:44:04;14.80;;;1.23;;
4174;SDS011;2101;48.290;14.382;2023-05-07T01:46:31;12.80;;;1.37;;
4174;SDS011;2101;48.290;14.382;2023-05-07T01:48:58;13.60;;;1.10;;
4174;SDS011;2101;48.290;14.382;2023-05-07T01:51:25;22.53;;;1.70;;
4174;SDS011;2101;48.290;14.382;2023-05-07T01:53:52;12.27;;;1.23;;
4174;SDS011;2101;48.290;14.382;2023-05-07T01:56:21;13.00;;;1.40;;
4174;SDS011;2101;48.290;14.382;2023-05-07T01:58:49;21.93;;;1.53;;
4174;SDS011;2101;48.290;14.382;2023-05-07T02:01:25;14.23;;;1.57;;
4174;SDS011;2101;48.290;14.382;2023-05-07T02:03:54;13.00;;;1.50;;
4174;SDS011;2101;48.290;14.382;2023-05-07T02:06:40;12.67;;;1.30;;
4174;SDS011;2101;48.290;14.382;2023-05-07T02:09:06;15.37;;;1.67;;
4174;SDS011;2101;48.290;14.382;2023-05-07T02:11:34;12.67;;;1.30;;
4174;SDS011;2101;48.290;14.382;2023-05-07T02:14:02;15.17;;;1.73;;
4174;SDS011;2101;48.290;14.382;2023-05-07T02:16:28;13.50;;;1.37;;
4174;SDS011;2101;48.290;14.382;2023-05-07T02:19:08;15.80;;;1.50;;
4174;SDS011;2101;48.290;14.382;2023-05-07T02:21:46;13.87;;;1.40;;
4174;SDS011;2101;48.290;14.382;2023-05-07T02:24:38;12.70;;;1.37;;
4174;SDS011;2101;48.290;14.382;2023-05-07T02:27:05;12.53;;;1.33;;
4174;SDS011;2101;48.290;14.382;2023-05-07T02:29:40;13.87;;;1.53;;
4174;SDS011;2101;48.290;14.382;2023-05-07T02:32:25;13.53;;;1.67;;
4174;SDS011;2101;48.290;14.382;2023-05-07T02:35:00;13.63;;;1.37;;
4174;SDS011;2101;48.290;14.382;2023-05-07T02:37:27;13.57;;;1.53;;
4174;SDS011;2101;48.290;14.382;2023-05-07T02:40:06;12.93;;;1.40;;
4174;SDS011;2101;48.290;14.382;2023-05-07T02:42:35;13.40;;;1.70;;
4174;SDS011;2101;48.290;14.382;2023-05-07T02:45:22;15.03;;;1.70;;
4174;SDS011;2101;48.290;14.382;2023-05-07T02:48:16;15.10;;;1.40;;
4174;SDS011;2101;48.290;14.382;2023-05-07T02:50:42;13.47;;;1.77;;
4174;SDS011;2101;48.290;14.382;2023-05-07T02:53:08;15.13;;;1.83;;
4174;SDS011;2101;48.290;14.382;2023-05-07T02:55:53;13.50;;;1.80;;
4174;SDS011;2101;48.290;14.382;2023-05-07T02:58:24;13.50;;;1.60;;
4174;SDS011;2101;48.290;14.382;2023-05-07T03:00:59;13.23;;;1.63;;
4174;SDS011;2101;48.290;14.382;2023-05-07T03:03:39;13.37;;;1.70;;
4174;SDS011;2101;48.290;14.382;2023-05-07T03:06:06;14.70;;;1.90;;
4174;SDS011;2101;48.290;14.382;2023-05-07T03:08:38;13.20;;;1.47;;
4174;SDS011;2101;48.290;14.382;2023-05-07T03:11:10;13.03;;;1.40;;
4174;SDS011;2101;48.290;14.382;2023-05-07T03:13:56;17.10;;;2.00;;
4174;SDS011;2101;48.290;14.382;2023-05-07T03:16:24;13.47;;;1.80;;
4174;SDS011;2101;48.290;14.382;2023-05-07T03:18:50;13.20;;;1.57;;
4174;SDS011;2101;48.290;14.382;2023-05-07T03:21:29;13.30;;;1.80;;
4174;SDS011;2101;48.290;14.382;2023-05-07T03:23:55;13.40;;;1.60;;
4174;SDS011;2101;48.290;14.382;2023-05-07T03:26:51;13.57;;;1.87;;
4174;SDS011;2101;48.290;14.382;2023-05-07T03:29:37;25.30;;;2.43;;
4174;SDS011;2101;48.290;14.382;2023-05-07T03:32:06;13.87;;;1.80;;
4174;SDS011;2101;48.290;14.382;2023-05-07T03:34:32;15.50;;;2.20;;
4174;SDS011;2101;48.290;14.382;2023-05-07T03:37:02;13.40;;;1.93;;
4174;SDS011;2101;48.290;14.382;2023-05-07T03:39:31;22.23;;;2.20;;
4174;SDS011;2101;48.290;14.382;2023-05-07T03:42:06;13.57;;;2.07;;
4174;SDS011;2101;48.290;14.382;2023-05-07T03:44:46;14.80;;;2.00;;
4174;SDS011;2101;48.290;14.382;2023-05-07T03:47:12;14.30;;;2.13;;
4174;SDS011;2101;48.290;14.382;2023-05-07T03:49:42;14.03;;;2.10;;
4174;SDS011;2101;48.290;14.382;2023-05-07T03:52:26;17.00;;;2.83;;
4174;SDS011;2101;48.290;14.382;2023-05-07T03:55:19;14.87;;;2.37;;
4174;SDS011;2101;48.290;14.382;2023-05-07T03:57:48;15.00;;;2.50;;
4174;SDS011;2101;48.290;14.382;2023-05-07T04:00:15;14.23;;;2.37;;
4174;SDS011;2101;48.290;14.382;2023-05-07T04:02:42;15.80;;;2.67;;
4174;SDS011;2101;48.290;14.382;2023-05-07T04:05:20;15.93;;;2.67;;
4174;SDS011;2101;48.290;14.382;2023-05-07T04:07:47;14.40;;;2.43;;
4174;SDS011;2101;48.290;14.382;2023-05-07T04:10:19;14.30;;;2.57;;
4174;SDS011;2101;48.290;14.382;2023-05-07T04:13:11;15.40;;;3.10;;
4174;SDS011;2101;48.290;14.382;2023-05-07T04:15:37;15.77;;;2.87;;
4174;SDS011;2101;48.290;14.382;2023-05-07T04:18:07;14.60;;;2.50;;
4174;SDS011;2101;48.290;14.382;2023-05-07T04:20:33;15.33;;;2.43;;
4174;SDS011;2101;48.290;14.382;2023-05-07T04:23:01;17.10;;;3.27;;
4174;SDS011;2101;48.290;14.382;2023-05-07T04:25:29;17.27;;;3.27;;
4174;SDS011;2101;48.290;14.382;2023-05-07T04:27:55;17.00;;;3.43;;
4174;SDS011;2101;48.290;14.382;2023-05-07T04:30:25;15.40;;;3.10;;
4174;SDS011;2101;48.290;14.382;2023-05-07T04:32:52;29.67;;;3.67;;
4174;SDS011;2101;48.290;14.382;2023-05-07T04:35:18;16.80;;;3.33;;
4174;SDS011;2101;48.290;14.382;2023-05-07T04:37:50;17.63;;;3.70;;
4174;SDS011;2101;48.290;14.382;2023-05-07T04:40:17;19.80;;;3.57;;
4174;SDS011;2101;48.290;14.382;2023-05-07T04:42:43;16.53;;;3.70;;
4174;SDS011;2101;48.290;14.382;2023-05-07T04:45:09;16.43;;;3.60;;
4174;SDS011;2101;48.290;14.382;2023-05-07T04:47:36;20.23;;;4.37;;
4174;SDS011;2101;48.290;14.382;2023-05-07T04:50:02;16.83;;;3.33;;
4174;SDS011;2101;48.290;14.382;2023-05-07T04:52:28;22.40;;;4.20;;
4174;SDS011;2101;48.290;14.382;2023-05-07T04:54:54;16.20;;;3.70;;
4174;SDS011;2101;48.290;14.382;2023-05-07T04:57:20;17.23;;;3.90;;
4174;SDS011;2101;48.290;14.382;2023-05-07T04:59:46;18.10;;;4.40;;
4174;SDS011;2101;48.290;14.382;2023-05-07T05:02:14;20.03;;;4.10;;
4174;SDS011;2101;48.290;14.382;2023-05-07T05:04:40;26.67;;;4.17;;
4174;SDS011;2101;48.290;14.382;2023-05-07T05:07:06;20.20;;;4.50;;
4174;SDS011;2101;48.290;14.382;2023-05-07T05:09:32;16.97;;;4.00;;
4174;SDS011;2101;48.290;14.382;2023-05-07T05:11:59;16.50;;;3.70;;
4174;SDS011;2101;48.290;14.382;2023-05-07T05:14:25;21.93;;;4.20;;
4174;SDS011;2101;48.290;14.382;2023-05-07T05:16:51;16.33;;;3.37;;
4174;SDS011;2101;48.290;14.382;2023-05-07T05:19:18;17.30;;;3.90;;
4174;SDS011;2101;48.290;14.382;2023-05-07T05:21:44;19.40;;;4.70;;
4174;SDS011;2101;48.290;14.382;2023-05-07T05:24:10;18.60;;;3.60;;
4174;SDS011;2101;48.290;14.382;2023-05-07T05:26:37;18.93;;;4.27;;
4174;SDS011;2101;48.290;14.382;2023-05-07T05:29:03;21.20;;;4.40;;
4174;SDS011;2101;48.290;14.382;2023-05-07T05:31:29;18.20;;;3.57;;
4174;SDS011;2101;48.290;14.382;2023-05-07T05:33:55;18.23;;;3.73;;
4174;SDS011;2101;48.290;14.382;2023-05-07T05:36:21;21.93;;;4.97;;
4174;SDS011;2101;48.290;14.382;2023-05-07T05:38:48;18.70;;;4.60;;
4174;SDS011;2101;48.290;14.382;2023-05-07T05:41:14;20.47;;;4.30;;
4174;SDS011;2101;48.290;14.382;2023-05-07T05:43:40;18.10;;;3.70;;
4174;SDS011;2101;48.290;14.382;2023-05-07T05:46:06;20.47;;;4.87;;
4174;SDS011;2101;48.290;14.382;2023-05-07T05:48:33;18.00;;;4.00;;
4174;SDS011;2101;48.290;14.382;2023-05-07T05:50:59;17.73;;;3.43;;
4174;SDS011;2101;48.290;14.382;2023-05-07T05:53:25;16.83;;;3.50;;
4174;SDS011;2101;48.290;14.382;2023-05-07T05:55:52;17.83;;;3.43;;
4174;SDS011;2101;48.290;14.382;2023-05-07T05:58:18;18.43;;;3.50;;
4174;SDS011;2101;48.290;14.382;2023-05-07T06:00:47;17.20;;;2.63;;
4174;SDS011;2101;48.290;14.382;2023-05-07T06:03:13;16.67;;;2.50;;
4174;SDS011;2101;48.290;14.382;2023-05-07T06:05:39;15.77;;;2.80;;
4174;SDS011;2101;48.290;14.382;2023-05-07T06:08:05;18.90;;;2.90;;
4174;SDS011;2101;48.290;14.382;2023-05-07T06:10:35;17.50;;;3.20;;
4174;SDS011;2101;48.290;14.382;2023-05-07T06:13:02;17.20;;;3.30;;
4174;SDS011;2101;48.290;14.382;2023-05-07T06:15:28;16.10;;;2.97;;
4174;SDS011;2101;48.290;14.382;2023-05-07T06:17:54;16.47;;;3.63;;
4174;SDS011;2101;48.290;14.382;2023-05-07T06:20:22;17.27;;;3.77;;
4174;SDS011;2101;48.290;14.382;2023-05-07T06:22:48;16.40;;;3.53;;
4174;SDS011;2101;48.290;14.382;2023-05-07T06:25:17;16.00;;;3.60;;
4174;SDS011;2101;48.290;14.382;2023-05-07T06:27:43;18.03;;;3.47;;
4174;SDS011;2101;48.290;14.382;2023-05-07T06:30:12;16.03;;;3.43;;
4174;SDS011;2101;48.290;14.382;2023-05-07T06:32:40;20.17;;;3.40;;
4174;SDS011;2101;48.290;14.382;2023-05-07T06:35:06;19.40;;;3.60;;
4174;SDS011;2101;48.290;14.382;2023-05-07T06:37:32;16.20;;;3.20;;
4174;SDS011;2101;48.290;14.382;2023-05-07T06:40:01;20.03;;;3.60;;
4174;SDS011;2101;48.290;14.382;2023-05-07T06:42:28;17.00;;;3.70;;
4174;SDS011;2101;48.290;14.382;2023-05-07T06:44:54;15.73;;;2.90;;
4174;SDS011;2101;48.290;14.382;2023-05-07T06:47:20;15.97;;;3.10;;
4174;SDS011;2101;48.290;14.382;2023-05-07T06:49:46;15.10;;;2.70;;
4174;SDS011;2101;48.290;14.382;2023-05-07T06:52:12;16.67;;;3.57;;
4174;SDS011;2101;48.290;14.382;2023-05-07T06:54:39;17.67;;;2.90;;
4174;SDS011;2101;48.290;14.382;2023-05-07T06:57:05;15.53;;;3.10;;
4174;SDS011;2101;48.290;14.382;2023-05-07T06:59:31;16.00;;;3.50;;
4174;SDS011;2101;48.290;14.382;2023-05-07T07:01:57;17.70;;;3.97;;
4174;SDS011;2101;48.290;14.382;2023-05-07T07:04:24;17.00;;;3.60;;
4174;SDS011;2101;48.290;14.382;2023-05-07T07:06:53;18.73;;;3.30;;
4174;SDS011;2101;48.290;14.382;2023-05-07T07:09:19;17.47;;;3.97;;
4174;SDS011;2101;48.290;14.382;2023-05-07T07:11:45;15.30;;;3.00;;
4174;SDS011;2101;48.290;14.382;2023-05-07T07:14:12;15.50;;;3.20;;
4174;SDS011;2101;48.290;14.382;2023-05-07T07:16:38;15.60;;;3.33;;
4174;SDS011;2101;48.290;14.382;2023-05-07T07:19:04;15.70;;;3.23;;
4174;SDS011;2101;48.290;14.382;2023-05-07T07:21:30;15.20;;;3.10;;
4174;SDS011;2101;48.290;14.382;2023-05-07T07:23:57;17.33;;;3.20;;
4174;SDS011;2101;48.290;14.382;2023-05-07T07:26:23;16.37;;;3.23;;
4174;SDS011;2101;48.290;14.382;2023-05-07T07:28:49;15.40;;;3.00;;
4174;SDS011;2101;48.290;14.382;2023-05-07T07:31:16;16.47;;;2.83;;
4174;SDS011;2101;48.290;14.382;2023-05-07T07:33:42;15.50;;;3.17;;
4174;SDS011;2101;48.290;14.382;2023-05-07T07:36:08;15.53;;;2.97;;
4174;SDS011;2101;48.290;14.382;2023-05-07T07:38:34;14.40;;;2.60;;
4174;SDS011;2101;48.290;14.382;2023-05-07T07:41:00;16.80;;;2.90;;
4174;SDS011;2101;48.290;14.382;2023-05-07T07:43:27;17.70;;;2.90;;
4174;SDS011;2101;48.290;14.382;2023-05-07T07:45:53;14.73;;;2.97;;
4174;SDS011;2101;48.290;14.382;2023-05-07T07:48:19;14.53;;;2.67;;
4174;SDS011;2101;48.290;14.382;2023-05-07T07:50:48;15.20;;;2.73;;
4174;SDS011;2101;48.290;14.382;2023-05-07T07:53:17;17.20;;;3.17;;
4174;SDS011;2101;48.290;14.382;2023-05-07T07:55:43;22.73;;;3.03;;
4174;SDS011;2101;48.290;14.382;2023-05-07T07:58:09;15.93;;;3.30;;
4174;SDS011;2101;48.290;14.382;2023-05-07T08:00:36;24.73;;;3.60;;
4174;SDS011;2101;48.290;14.382;2023-05-07T08:03:02;14.90;;;2.40;;
4174;SDS011;2101;48.290;14.382;2023-05-07T08:05:28;15.37;;;2.90;;
4174;SDS011;2101;48.290;14.382;2023-05-07T08:07:54;14.77;;;2.93;;
4174;SDS011;2101;48.290;14.382;2023-05-07T08:10:21;14.23;;;2.20;;
4174;SDS011;2101;48.290;14.382;2023-05-07T08:12:48;16.47;;;2.73;;
4174;SDS011;2101;48.290;14.382;2023-05-07T08:15:14;13.87;;;2.60;;
4174;SDS011;2101;48.290;14.382;2023-05-07T08:17:43;17.83;;;2.97;;
4174;SDS011;2101;48.290;14.382;2023-05-07T08:20:09;15.60;;;2.63;;
4174;SDS011;2101;48.290;14.382;2023-05-07T08:22:36;22.10;;;2.93;;
4174;SDS011;2101;48.290;14.382;2023-05-07T08:25:02;17.97;;;2.43;;
4174;SDS011;2101;48.290;14.382;2023-05-07T08:27:28;15.30;;;2.73;;
4174;SDS011;2101;48.290;14.382;2023-05-07T08:29:54;13.57;;;2.63;;
4174;SDS011;2101;48.290;14.382;2023-05-07T08:32:23;13.83;;;2.53;;
4174;SDS011;2101;48.290;14.382;2023-05-07T08:34:49;14.27;;;2.40;;
4174;SDS011;2101;48.290;14.382;2023-05-07T08:37:16;13.80;;;2.00;;
4174;SDS011;2101;48.290;14.382;2023-05-07T08:39:42;15.30;;;2.67;;
4174;SDS011;2101;48.290;14.382;2023-05-07T08:42:08;16.30;;;3.47;;
4174;SDS011;2101;48.290;14.382;2023-05-07T08:44:35;16.73;;;2.87;;
4174;SDS011;2101;48.290;14.382;2023-05-07T08:47:06;15.20;;;3.00;;
4174;SDS011;2101;48.290;14.382;2023-05-07T08:49:33;22.63;;;3.33;;
4174;SDS011;2101;48.290;14.382;2023-05-07T08:52:00;15.50;;;2.97;;
4174;SDS011;2101;48.290;14.382;2023-05-07T08:54:26;17.57;;;3.00;;
4174;SDS011;2101;48.290;14.382;2023-05-07T08:56:57;20.70;;;3.97;;
4174;SDS011;2101;48.290;14.382;2023-05-07T08:59:27;17.27;;;4.03;;
4174;SDS011;2101;48.290;14.382;2023-05-07T09:01:53;17.20;;;3.87;;
4174;SDS011;2101;48.290;14.382;2023-05-07T09:04:19;18.20;;;3.93;;
4174;SDS011;2101;48.290;14.382;2023-05-07T09:06:45;22.60;;;4.63;;
4174;SDS011;2101;48.290;14.382;2023-05-07T09:09:22;19.83;;;4.60;;
4174;SDS011;2101;48.290;14.382;2023-05-07T09:11:48;18.77;;;3.57;;
4174;SDS011;2101;48.290;14.382;2023-05-07T09:14:24;16.67;;;3.57;;
4174;SDS011;2101;48.290;14.382;2023-05-07T09:16:53;18.47;;;3.83;;
4174;SDS011;2101;48.290;14.382;2023-05-07T09:19:23;20.33;;;3.90;;
4174;SDS011;2101;48.290;14.382;2023-05-07T09:21:50;18.50;;;4.40;;
4174;SDS011;2101;48.290;14.382;2023-05-07T09:24:23;18.77;;;4.17;;
4174;SDS011;2101;48.290;14.382;2023-05-07T09:26:49;19.47;;;3.70;;
4174;SDS011;2101;48.290;14.382;2023-05-07T09:29:16;21.07;;;4.83;;
4174;SDS011;2101;48.290;14.382;2023-05-07T09:31:42;21.33;;;5.20;;
4174;SDS011;2101;48.290;14.382;2023-05-07T09:34:09;17.37;;;4.20;;
4174;SDS011;2101;48.290;14.382;2023-05-07T09:36:35;21.23;;;4.87;;
4174;SDS011;2101;48.290;14.382;2023-05-07T09:39:01;18.33;;;4.50;;
4174;SDS011;2101;48.290;14.382;2023-05-07T09:41:27;21.73;;;4.87;;
4174;SDS011;2101;48.290;14.382;2023-05-07T09:43:56;17.30;;;4.40;;
4174;SDS011;2101;48.290;14.382;2023-05-07T09:46:27;17.53;;;4.33;;
4174;SDS011;2101;48.290;14.382;2023-05-07T09:48:53;18.80;;;4.57;;
4174;SDS011;2101;48.290;14.382;2023-05-07T09:51:30;18.97;;;4.73;;
4174;SDS011;2101;48.290;14.382;2023-05-07T09:53:57;18.00;;;4.27;;
4174;SDS011;2101;48.290;14.382;2023-05-07T09:56:29;18.23;;;4.40;;
4174;SDS011;2101;48.290;14.382;2023-05-07T09:58:58;17.50;;;4.00;;
4174;SDS011;2101;48.290;14.382;2023-05-07T10:01:26;18.00;;;4.27;;
4174;SDS011;2101;48.290;14.382;2023-05-07T10:03:53;17.67;;;4.60;;
4174;SDS011;2101;48.290;14.382;2023-05-07T10:06:20;17.87;;;4.33;;
4174;SDS011;2101;48.290;14.382;2023-05-07T10:08:47;19.20;;;4.80;;
4174;SDS011;2101;48.290;14.382;2023-05-07T10:11:14;17.97;;;4.13;;
4174;SDS011;2101;48.290;14.382;2023-05-07T10:13:41;19.50;;;4.50;;
4174;SDS011;2101;48.290;14.382;2023-05-07T10:16:07;19.57;;;4.83;;
4174;SDS011;2101;48.290;14.382;2023-05-07T10:18:33;17.83;;;4.23;;
4174;SDS011;2101;48.290;14.382;2023-05-07T10:24:03;38.03;;;4.53;;
4174;SDS011;2101;48.290;14.382;2023-05-07T10:26:39;28.40;;;4.80;;
4174;SDS011;2101;48.290;14.382;2023-05-07T10:29:07;16.60;;;3.80;;
4174;SDS011;2101;48.290;14.382;2023-05-07T10:31:54;16.87;;;3.70;;
4174;SDS011;2101;48.290;14.382;2023-05-07T10:34:23;17.47;;;4.30;;
4174;SDS011;2101;48.290;14.382;2023-05-07T10:36:50;16.60;;;4.20;;
4174;SDS011;2101;48.290;14.382;2023-05-07T10:39:17;18.57;;;4.30;;
4174;SDS011;2101;48.290;14.382;2023-05-07T10:41:43;17.87;;;4.23;;
4174;SDS011;2101;48.290;14.382;2023-05-07T10:44:10;16.03;;;3.67;;
4174;SDS011;2101;48.290;14.382;2023-05-07T10:46:36;17.97;;;3.90;;
4174;SDS011;2101;48.290;14.382;2023-05-07T10:51:30;18.03;;;4.10;;
4174;SDS011;2101;48.290;14.382;2023-05-07T10:56:42;16.00;;;3.60;;
4174;SDS011;2101;48.290;14.382;2023-05-07T11:01:53;16.00;;;3.33;;
4174;SDS011;2101;48.290;14.382;2023-05-07T11:04:19;18.10;;;3.67;;
4174;SDS011;2101;48.290;14.382;2023-05-07T11:15:06;16.77;;;3.60;;
4174;SDS011;2101;48.290;14.382;2023-05-07T11:17:32;16.17;;;3.40;;
4174;SDS011;2101;48.290;14.382;2023-05-07T11:20:02;18.40;;;3.53;;
4174;SDS011;2101;48.290;14.382;2023-05-07T11:25:00;15.13;;;3.00;;
4174;SDS011;2101;48.290;14.382;2023-05-07T11:27:27;18.00;;;3.60;;
4174;SDS011;2101;48.290;14.382;2023-05-07T11:29:53;16.33;;;2.70;;
4174;SDS011;2101;48.290;14.382;2023-05-07T11:32:22;18.57;;;2.83;;
4174;SDS011;2101;48.290;14.382;2023-05-07T11:34:52;16.70;;;2.87;;
4174;SDS011;2101;48.290;14.382;2023-05-07T11:37:19;16.73;;;3.73;;
4174;SDS011;2101;48.290;14.382;2023-05-07T11:39:45;18.53;;;4.00;;
4174;SDS011;2101;48.290;14.382;2023-05-07T11:42:30;17.20;;;3.60;;
4174;SDS011;2101;48.290;14.382;2023-05-07T11:44:56;15.63;;;2.67;;
4174;SDS011;2101;48.290;14.382;2023-05-07T11:47:22;15.40;;;3.00;;
4174;SDS011;2101;48.290;14.382;2023-05-07T11:49:51;17.23;;;2.97;;
4174;SDS011;2101;48.290;14.382;2023-05-07T11:52:18;16.50;;;3.13;;
4174;SDS011;2101;48.290;14.382;2023-05-07T11:54:54;16.50;;;3.10;;
4174;SDS011;2101;48.290;14.382;2023-05-07T11:57:21;16.07;;;3.07;;
4174;SDS011;2101;48.290;14.382;2023-05-07T11:59:47;17.10;;;3.27;;
4174;SDS011;2101;48.290;14.382;2023-05-07T12:02:14;16.63;;;3.30;;
4174;SDS011;2101;48.290;14.382;2023-05-07T12:04:40;19.50;;;4.00;;
4174;SDS011;2101;48.290;14.382;2023-05-07T12:07:13;17.10;;;3.37;;
4174;SDS011;2101;48.290;14.382;2023-05-07T12:09:40;17.13;;;3.27;;
4174;SDS011;2101;48.290;14.382;2023-05-07T12:12:06;16.73;;;3.37;;
4174;SDS011;2101;48.290;14.382;2023-05-07T12:14:33;14.63;;;2.57;;
4174;SDS011;2101;48.290;14.382;2023-05-07T12:17:03;16.33;;;3.10;;
4174;SDS011;2101;48.290;14.382;2023-05-07T12:19:30;15.90;;;3.10;;
4174;SDS011;2101;48.290;14.382;2023-05-07T12:21:56;16.43;;;3.20;;
4174;SDS011;2101;48.290;14.382;2023-05-07T12:24:23;18.73;;;2.90;;
4174;SDS011;2101;48.290;14.382;2023-05-07T12:26:49;16.07;;;2.63;;
4174;SDS011;2101;48.290;14.382;2023-05-07T12:29:15;15.50;;;3.00;;
4174;SDS011;2101;48.290;14.382;2023-05-07T12:31:41;14.30;;;2.57;;
4174;SDS011;2101;48.290;14.382;2023-05-07T12:34:07;15.57;;;2.97;;
4174;SDS011;2101;48.290;14.382;2023-05-07T12:36:37;20.93;;;3.00;;
4174;SDS011;2101;48.290;14.382;2023-05-07T12:39:04;16.00;;;2.90;;
4174;SDS011;2101;48.290;14.382;2023-05-07T12:41:31;16.73;;;2.67;;
4174;SDS011;2101;48.290;14.382;2023-05-07T12:44:03;14.20;;;2.30;;
4174;SDS011;2101;48.290;14.382;2023-05-07T12:46:30;15.03;;;2.60;;
4174;SDS011;2101;48.290;14.382;2023-05-07T12:48:56;14.40;;;2.30;;
4174;SDS011;2101;48.290;14.382;2023-05-07T12:51:27;17.70;;;2.63;;
4174;SDS011;2101;48.290;14.382;2023-05-07T12:53:55;14.43;;;2.37;;
4174;SDS011;2101;48.290;14.382;2023-05-07T12:56:22;13.87;;;2.03;;
4174;SDS011;2101;48.290;14.382;2023-05-07T12:58:49;16.63;;;2.40;;
4174;SDS011;2101;48.290;14.382;2023-05-07T13:01:15;13.20;;;1.80;;
4174;SDS011;2101;48.290;14.382;2023-05-07T13:03:47;13.90;;;2.03;;
4174;SDS011;2101;48.290;14.382;2023-05-07T13:06:15;17.73;;;2.30;;
4174;SDS011;2101;48.290;14.382;2023-05-07T13:08:41;13.87;;;1.70;;
4174;SDS011;2101;48.290;14.382;2023-05-07T13:11:10;14.07;;;1.67;;
4174;SDS011;2101;48.290;14.382;2023-05-07T13:13:37;13.37;;;1.70;;
4174;SDS011;2101;48.290;14.382;2023-05-07T13:16:04;15.13;;;1.60;;
4174;SDS011;2101;48.290;14.382;2023-05-07T13:18:31;13.97;;;2.00;;
4174;SDS011;2101;48.290;14.382;2023-05-07T13:20:57;13.20;;;1.53;;
4174;SDS011;2101;48.290;14.382;2023-05-07T13:23:23;13.57;;;1.90;;
4174;SDS011;2101;48.290;14.382;2023-05-07T13:25:50;13.17;;;1.73;;
4174;SDS011;2101;48.290;14.382;2023-05-07T13:28:20;14.63;;;1.80;;
4174;SDS011;2101;48.290;14.382;2023-05-07T13:30:46;13.50;;;1.30;;
4174;SDS011;2101;48.290;14.382;2023-05-07T13:33:13;13.60;;;1.63;;
4174;SDS011;2101;48.290;14.382;2023-05-07T13:35:41;14.87;;;1.97;;
4174;SDS011;2101;48.290;14.382;2023-05-07T13:38:07;14.37;;;2.23;;
4174;SDS011;2101;48.290;14.382;2023-05-07T13:40:33;16.40;;;2.20;;
4174;SDS011;2101;48.290;14.382;2023-05-07T13:43:00;14.07;;;2.20;;
4174;SDS011;2101;48.290;14.382;2023-05-07T13:45:30;13.90;;;1.83;;
4174;SDS011;2101;48.290;14.382;2023-05-07T13:47:56;14.13;;;2.03;;
4174;SDS011;2101;48.290;14.382;2023-05-07T13:50:23;14.23;;;2.33;;
4174;SDS011;2101;48.290;14.382;2023-05-07T13:52:49;17.30;;;2.30;;
4174;SDS011;2101;48.290;14.382;2023-05-07T13:55:19;13.50;;;1.90;;
4174;SDS011;2101;48.290;14.382;2023-05-07T13:57:54;14.70;;;2.10;;
4174;SDS011;2101;48.290;14.382;2023-05-07T14:00:20;12.73;;;1.63;;
4174;SDS011;2101;48.290;14.382;2023-05-07T14:02:51;13.83;;;1.80;;
4174;SDS011;2101;48.290;14.382;2023-05-07T14:05:18;14.03;;;1.87;;
4174;SDS011;2101;48.290;14.382;2023-05-07T14:07:44;13.87;;;1.90;;
4174;SDS011;2101;48.290;14.382;2023-05-07T14:10:10;14.50;;;2.07;;
4174;SDS011;2101;48.290;14.382;2023-05-07T14:12:38;13.80;;;1.97;;
4174;SDS011;2101;48.290;14.382;2023-05-07T14:15:04;14.13;;;2.00;;
4174;SDS011;2101;48.290;14.382;2023-05-07T14:17:30;13.83;;;2.00;;
4174;SDS011;2101;48.290;14.382;2023-05-07T14:19:56;15.03;;;2.50;;
4174;SDS011;2101;48.290;14.382;2023-05-07T14:22:23;16.97;;;2.73;;
4174;SDS011;2101;48.290;14.382;2023-05-07T14:24:52;17.63;;;2.27;;
4174;SDS011;2101;48.290;14.382;2023-05-07T14:27:23;16.20;;;3.07;;
4174;SDS011;2101;48.290;14.382;2023-05-07T14:29:50;15.23;;;2.20;;
4174;SDS011;2101;48.290;14.382;2023-05-07T14:32:27;15.13;;;2.97;;
4174;SDS011;2101;48.290;14.382;2023-05-07T14:34:53;15.23;;;2.57;;
4174;SDS011;2101;48.290;14.382;2023-05-07T14:37:19;15.63;;;2.90;;
4174;SDS011;2101;48.290;14.382;2023-05-07T14:39:45;15.00;;;2.07;;
4174;SDS011;2101;48.290;14.382;2023-05-07T14:42:11;13.63;;;1.77;;
4174;SDS011;2101;48.290;14.382;2023-05-07T14:44:37;14.33;;;1.83;;
4174;SDS011;2101;48.290;14.382;2023-05-07T14:47:06;13.80;;;1.90;;
4174;SDS011;2101;48.290;14.382;2023-05-07T14:49:33;14.30;;;2.07;;
4174;SDS011;2101;48.290;14.382;2023-05-07T14:51:59;14.60;;;1.67;;
4174;SDS011;2101;48.290;14.382;2023-05-07T14:54:29;14.50;;;2.10;;
4174;SDS011;2101;48.290;14.382;2023-05-07T14:56:55;14.10;;;1.83;;
4174;SDS011;2101;48.290;14.382;2023-05-07T14:59:21;15.73;;;2.03;;
4174;SDS011;2101;48.290;14.382;2023-05-07T15:01:49;17.10;;;2.10;;
4174;SDS011;2101;48.290;14.382;2023-05-07T15:04:15;14.37;;;2.03;;
4174;SDS011;2101;48.290;14.382;2023-05-07T15:06:42;14.53;;;2.70;;
4174;SDS011;2101;48.290;14.382;2023-05-07T15:09:08;20.17;;;3.87;;
4174;SDS011;2101;48.290;14.382;2023-05-07T15:11:34;15.77;;;3.30;;
4174;SDS011;2101;48.290;14.382;2023-05-07T15:14:00;18.60;;;3.50;;
4174;SDS011;2101;48.290;14.382;2023-05-07T15:16:26;20.80;;;4.00;;